Time;durP1;ratioP1;P1;durP2;ratioP2;P2;SDS_P1;SDS_P2;PMS_P1;PMS_P2;Temp;Humidity;BMP_temperature;BMP_pressure;BME280_temperature;BME280_humidity;BME280_pressure;Samples;Min_cycle;Max_cycle;Signal;HPM_P1;HPM_P2
2022/04/09 07:58:38;;;;;;;15.70;3.92;;;;;;;6.62;74.59;100988.38;5230332;27;1921133;-67
2022/04/09 08:01:10;;;;;;;10.35;3.85;;;;;;;6.70;74.80;101000.84;5284542;28;20040;-64
2022/04/09 08:03:41;;;;;;;15.32;4.55;;;;;;;6.81;73.52;101005.34;5279664;28;20031;-67
2022/04/09 08:06:12;;;;;;;14.32;5.53;;;;;;;7.00;73.59;100986.50;5279611;28;20111;-67
2022/04/09 08:08:44;;;;;;;11.32;5.43;;;;;;;7.16;73.79;100995.75;5280986;28;20025;-67
2022/04/09 08:11:15;;;;;;;10.35;3.80;;;;;;;7.18;71.69;100997.16;5278584;28;20074;-70
2022/04/09 08:13:46;;;;;;;13.90;4.13;;;;;;;7.11;70.24;100993.78;5284393;28;20032;-67
2022/04/09 08:16:18;;;;;;;17.63;4.75;;;;;;;7.17;69.67;100997.41;5279711;28;20525;-68
2022/04/09 08:18:49;;;;;;;9.38;4.43;;;;;;;7.19;68.44;101004.31;5279532;28;20435;-67
2022/04/09 08:21:20;;;;;;;11.77;3.33;;;;;;;7.30;68.59;101001.66;5278970;28;20057;-69
2022/04/09 08:23:51;;;;;;;14.80;4.95;;;;;;;7.32;67.02;101003.03;5286858;28;20021;-65
2022/04/09 08:26:23;;;;;;;16.20;3.72;;;;;;;7.43;66.27;101008.63;5273451;28;20028;-66
2022/04/09 08:28:54;;;;;;;8.98;3.30;;;;;;;7.42;64.70;101006.97;5288851;28;20122;-67
2022/04/09 08:31:25;;;;;;;10.95;3.58;;;;;;;7.46;63.42;101013.63;5284649;28;20089;-69
2022/04/09 08:33:57;;;;;;;13.40;4.20;;;;;;;7.40;60.67;101015.50;5279330;28;20017;-67
2022/04/09 08:36:28;;;;;;;11.45;4.35;;;;;;;7.51;61.70;101013.66;5277811;28;20025;-67
2022/04/09 08:38:59;;;;;;;11.18;3.25;;;;;;;7.45;61.63;101021.06;5278921;28;20024;-67
2022/04/09 08:41:31;;;;;;;8.38;3.55;;;;;;;7.59;59.46;101033.34;5288166;28;20209;-66
2022/04/09 08:44:02;;;;;;;9.68;3.88;;;;;;;7.63;60.86;101022.56;5272058;28;20066;-67
2022/04/09 08:46:35;;;;;;;7.65;2.80;;;;;;;7.78;61.65;101030.13;5279108;28;20116;-67
2022/04/09 08:49:07;;;;;;;7.80;3.40;;;;;;;7.87;61.94;101044.25;5278308;28;20029;-68
2022/04/09 08:51:39;;;;;;;8.43;4.15;;;;;;;7.88;61.94;101032.13;5278990;28;20028;-67
2022/04/09 08:54:12;;;;;;;7.28;3.83;;;;;;;7.75;58.17;101048.06;5278567;28;20025;-67
2022/04/09 08:56:43;;;;;;;10.32;3.92;;;;;;;7.83;57.05;101055.84;5277741;28;20060;-68
2022/04/09 08:59:14;;;;;;;6.90;2.58;;;;;;;7.88;56.67;101040.41;5292824;28;20116;-67
2022/04/09 09:01:47;;;;;;;8.35;2.60;;;;;;;7.87;57.42;101049.78;5271483;28;20029;-65
2022/04/09 09:04:18;;;;;;;10.63;2.70;;;;;;;7.80;56.35;101045.34;5286096;28;20128;-66
2022/04/09 09:06:50;;;;;;;7.70;2.75;;;;;;;7.83;58.48;101050.31;5287875;28;20111;-66
2022/04/09 09:09:27;;;;;;;7.45;2.60;;;;;;;7.81;58.05;101057.22;5270115;28;20024;-66
2022/04/09 09:12:00;;;;;;;8.55;2.83;;;;;;;8.00;57.30;101071.41;5263559;28;20055;-66
2022/04/09 09:14:33;;;;;;;9.90;6.13;;;;;;;8.06;56.07;101070.34;5274044;28;20024;-66
2022/04/09 09:17:04;;;;;;;8.85;2.50;;;;;;;8.05;54.61;101058.47;5260416;28;20060;-67
2022/04/09 09:19:47;;;;;;;7.60;3.05;;;;;;;8.40;56.18;101072.75;5260456;28;20123;-67
2022/04/09 09:22:19;;;;;;;8.20;2.10;;;;;;;8.42;53.69;101073.31;5249318;28;20064;-66
2022/04/09 09:25:03;;;;;;;6.57;2.13;;;;;;;8.56;53.27;101074.47;5260298;28;20096;-67
2022/04/09 09:27:37;;;;;;;7.03;2.50;;;;;;;8.54;53.17;101076.69;5262059;28;20389;-67
2022/04/09 09:30:13;;;;;;;8.73;2.72;;;;;;;8.73;54.41;101078.97;5267602;28;20036;-69
2022/04/09 09:32:45;;;;;;;6.25;2.45;;;;;;;8.77;56.35;101080.06;5262310;28;20487;-67
2022/04/09 09:35:17;;;;;;;9.65;2.35;;;;;;;8.54;57.65;101082.22;5258748;28;20021;-70
2022/04/09 09:37:51;;;;;;;9.48;4.22;;;;;;;8.48;59.91;101089.66;5262353;28;20071;-69
2022/04/09 09:40:32;;;;;;;6.07;1.88;;;;;;;8.12;57.98;101096.06;5266942;28;20048;-68
2022/04/09 09:43:14;;;;;;;11.45;5.00;;;;;;;8.20;59.52;101087.25;5263690;28;20479;-67
2022/04/09 09:45:47;;;;;;;12.73;5.05;;;;;;;8.07;58.18;101091.34;5260136;28;20349;-66
2022/04/09 09:48:28;;;;;;;5.57;2.00;;;;;;;8.11;56.55;101089.72;5263529;28;20029;-66
2022/04/09 09:51:00;;;;;;;6.13;1.98;;;;;;;8.27;55.70;101083.16;5261150;28;20079;-67
2022/04/09 09:53:34;;;;;;;8.35;2.15;;;;;;;8.41;53.71;101089.09;5262149;28;20033;-67
2022/04/09 09:56:05;;;;;;;6.07;1.95;;;;;;;8.46;53.63;101086.34;5272725;28;20036;-68
2022/04/09 09:58:38;;;;;;;5.85;2.22;;;;;;;8.51;53.17;101088.28;5262628;28;20037;-67
2022/04/09 10:01:09;;;;;;;5.60;2.08;;;;;;;8.56;52.50;101088.28;5262926;28;20055;-69
2022/04/09 10:03:41;;;;;;;8.73;2.28;;;;;;;8.59;51.33;101096.06;5261925;28;20388;-68
2022/04/09 10:06:13;;;;;;;4.60;2.05;;;;;;;8.69;52.28;101087.81;5263419;28;20024;-70
2022/04/09 10:08:45;;;;;;;6.15;2.08;;;;;;;8.68;51.20;101099.13;5256073;28;20040;-67
2022/04/09 10:11:17;;;;;;;4.80;2.00;;;;;;;8.68;49.62;101101.91;5263806;28;20108;-68
2022/04/09 10:13:51;;;;;;;5.35;1.75;;;;;;;8.54;47.36;101093.28;5263900;28;20112;-68
2022/04/09 10:16:23;;;;;;;4.38;1.77;;;;;;;8.51;48.65;101093.81;5269953;28;20033;-68
2022/04/09 10:19:00;;;;;;;4.88;2.03;;;;;;;8.48;49.16;101091.59;5263314;28;20068;-69
2022/04/09 10:21:33;;;;;;;4.93;2.15;;;;;;;8.55;48.38;101100.47;5260929;28;20025;-69
2022/04/09 10:24:14;;;;;;;4.38;2.50;;;;;;;8.58;47.78;101101.84;5268756;28;20190;-69
2022/04/09 10:26:45;;;;;;;4.85;2.38;;;;;;;8.44;47.36;101098.78;5254770;28;20440;-68
2022/04/09 10:29:17;;;;;;;5.10;2.22;;;;;;;8.40;47.67;101097.63;5262227;28;20028;-69
2022/04/09 10:31:52;;;;;;;9.98;3.35;;;;;;;8.33;47.92;101106.13;5261888;28;20033;-69
2022/04/09 10:34:23;;;;;;;5.38;1.85;;;;;;;8.28;48.20;101118.00;5259903;28;20036;-68
2022/04/09 10:36:54;;;;;;;6.07;2.05;;;;;;;8.24;45.48;101100.28;5269552;28;20471;-68
2022/04/09 10:39:40;;;;;;;4.18;1.60;;;;;;;8.31;45.73;101116.63;5264057;28;20445;-68
2022/04/09 10:43:01;;;;;;;5.18;1.70;;;;;;;8.33;46.21;101102.53;5241484;28;20025;-69
2022/04/09 10:45:32;;;;;;;5.07;2.35;;;;;;;8.17;46.33;101110.72;5243775;28;20435;-68
2022/04/09 10:48:06;;;;;;;2.97;1.52;;;;;;;8.17;46.42;101118.19;5261459;28;20025;-69
2022/04/09 10:51:02;;;;;;;4.13;1.85;;;;;;;8.21;46.71;101116.56;5266276;28;20032;-70
2022/04/09 10:53:54;;;;;;;3.92;1.40;;;;;;;8.23;46.41;101115.22;5265453;28;20028;-67
2022/04/09 10:56:27;;;;;;;6.38;5.18;;;;;;;8.33;42.22;101119.94;5260548;28;20033;-69
2022/04/09 10:59:12;;;;;;;4.38;1.50;;;;;;;8.45;42.83;101117.00;5251310;28;20048;-70
2022/04/09 11:01:47;;;;;;;4.35;2.25;;;;;;;8.55;44.20;101128.09;5259237;28;20028;-68
2022/04/09 11:04:36;;;;;;;5.25;1.90;;;;;;;8.81;44.78;101117.97;5260963;28;20036;-69
2022/04/09 11:07:07;;;;;;;3.30;1.90;;;;;;;9.05;45.35;101109.19;5267386;28;20157;-70
2022/04/09 11:10:00;;;;;;;5.97;1.83;;;;;;;9.20;44.16;101111.16;5265208;28;20116;-70
2022/04/09 11:12:42;;;;;;;6.95;3.20;;;;;;;9.20;44.57;101117.53;5263498;28;20396;-70
2022/04/09 11:15:17;;;;;;;7.57;4.03;;;;;;;9.14;41.37;101111.16;5262459;28;20464;-70
2022/04/09 11:17:50;;;;;;;2.35;1.52;;;;;;;9.05;38.97;101118.34;5249614;28;20049;-70
2022/04/09 11:20:23;;;;;;;2.28;1.20;;;;;;;8.95;39.34;101123.84;5261711;28;20021;-69
2022/04/09 11:22:56;;;;;;;3.92;1.38;;;;;;;8.93;41.82;101128.81;5263445;28;20032;-70
2022/04/09 11:25:29;;;;;;;4.10;2.38;;;;;;;8.97;42.46;101129.91;5261147;28;20013;-68
2022/04/09 11:28:17;;;;;;;3.17;1.40;;;;;;;8.82;40.38;101127.97;5261704;28;20028;-69
2022/04/09 11:31:04;;;;;;;3.08;1.20;;;;;;;8.77;40.82;101135.38;5261224;28;20376;-70
2022/04/09 11:33:35;;;;;;;1.45;1.23;;;;;;;9.04;41.74;101121.38;5253737;28;20044;-71
2022/04/09 11:36:09;;;;;;;2.53;1.20;;;;;;;9.27;41.00;101128.34;5266130;28;20464;-69
2022/04/09 11:38:41;;;;;;;3.17;1.40;;;;;;;9.54;41.04;101141.97;5271669;28;20044;-70
2022/04/09 11:41:20;;;;;;;2.05;1.55;;;;;;;9.56;41.05;101137.81;5261472;28;20028;-69
2022/04/09 11:43:55;;;;;;;4.45;2.40;;;;;;;9.59;40.69;101144.72;5251992;28;20380;-70
2022/04/09 11:46:32;;;;;;;4.40;2.42;;;;;;;9.62;40.01;101152.47;5260543;28;20051;-69
2022/04/09 11:49:03;;;;;;;3.33;1.27;;;;;;;9.82;40.26;101148.03;5261572;28;20029;-70
2022/04/09 11:51:35;;;;;;;4.32;2.10;;;;;;;9.89;38.88;101152.19;5253650;28;20027;-69
2022/04/09 11:54:17;;;;;;;2.72;1.70;;;;;;;9.87;40.24;101151.66;5274520;28;20071;-70
2022/04/09 11:56:48;;;;;;;4.05;1.33;;;;;;;9.89;40.72;101143.03;5274001;28;20040;-69
2022/04/09 11:59:19;;;;;;;2.05;1.10;;;;;;;9.92;38.61;101151.66;5267033;28;20116;-70
2022/04/09 12:01:52;;;;;;;1.45;1.00;;;;;;;9.88;38.76;101153.31;5267829;28;20020;-70
2022/04/09 12:04:23;;;;;;;2.05;1.20;;;;;;;9.89;38.54;101162.44;5261711;28;20022;-70
2022/04/09 12:06:55;;;;;;;2.95;1.30;;;;;;;9.91;39.46;101161.06;5257891;28;20076;-69
2022/04/09 12:09:26;;;;;;;2.17;1.20;;;;;;;9.66;39.01;101152.75;5271490;28;20463;-68
2022/04/09 12:12:00;;;;;;;4.63;2.50;;;;;;;9.76;38.37;101159.09;5264759;28;20029;-68
2022/04/09 12:14:32;;;;;;;3.28;2.70;;;;;;;9.60;38.83;101156.63;5269316;28;20108;-68
2022/04/09 12:17:14;;;;;;;5.80;2.63;;;;;;;9.77;40.04;101168.28;5263574;28;20587;-71
2022/04/09 12:19:45;;;;;;;3.80;1.60;;;;;;;9.80;39.71;101174.09;5268573;28;20025;-71
2022/04/09 12:22:22;;;;;;;4.55;1.50;;;;;;;9.76;41.49;101172.13;5262451;28;20037;-68
2022/04/09 12:24:58;;;;;;;2.92;1.38;;;;;;;9.53;41.00;101182.63;5256012;28;20021;-69
2022/04/09 12:27:43;;;;;;;2.80;1.30;;;;;;;9.45;41.02;101176.81;5258108;28;20056;-67
2022/04/09 12:30:15;;;;;;;2.47;1.50;;;;;;;9.28;41.06;101175.13;5245952;28;20053;-67
2022/04/09 12:32:46;;;;;;;10.02;1.98;;;;;;;9.36;41.45;101177.34;5264472;28;20110;-68
2022/04/09 12:35:17;;;;;;;5.25;1.50;;;;;;;9.46;40.86;101203.38;5259818;28;20025;-68
2022/04/09 12:37:50;;;;;;;3.63;1.00;;;;;;;9.61;39.79;101174.91;5259195;28;20035;-68
2022/04/09 12:40:23;;;;;;;5.85;1.40;;;;;;;9.65;40.28;101182.38;5259316;28;20018;-69
2022/04/09 12:42:55;;;;;;;2.58;1.40;;;;;;;9.68;39.30;101170.75;5253138;28;20040;-69
2022/04/09 12:45:27;;;;;;;3.95;2.15;;;;;;;9.79;38.96;101182.66;5270428;28;20025;-70
2022/04/09 12:48:05;;;;;;;2.72;1.15;;;;;;;10.02;38.40;101173.81;5268155;28;20037;-69
2022/04/09 12:50:36;;;;;;;4.18;3.10;;;;;;;10.13;38.91;101174.63;5264760;28;20033;-68
2022/04/09 12:53:07;;;;;;;2.72;1.48;;;;;;;10.18;37.02;101187.66;5264972;28;20025;-67
2022/04/09 12:55:41;;;;;;;4.80;1.08;;;;;;;10.19;36.84;101178.22;5273277;28;20035;-67
2022/04/09 12:58:13;;;;;;;1.95;1.20;;;;;;;10.23;35.38;101191.25;5263629;28;20102;-68
2022/04/09 13:00:44;;;;;;;3.70;1.13;;;;;;;10.39;36.74;101188.50;5260147;28;20040;-69
2022/04/09 13:03:17;;;;;;;3.53;1.00;;;;;;;10.54;36.35;101191.22;5265083;28;20029;-69
2022/04/09 13:05:48;;;;;;;4.32;1.70;;;;;;;10.66;37.59;101172.34;5264499;28;20020;-68
2022/04/09 13:08:19;;;;;;;2.65;1.23;;;;;;;10.42;38.65;101199.84;5264464;28;20380;-69
2022/04/09 13:10:50;;;;;;;4.07;1.30;;;;;;;10.74;37.98;101195.91;5269232;28;20031;-68
2022/04/09 13:13:22;;;;;;;2.70;1.45;;;;;;;10.77;35.91;101206.41;5280976;28;20046;-69
2022/04/09 13:15:53;;;;;;;2.78;1.10;;;;;;;10.45;35.29;101210.34;5262888;28;20025;-69
2022/04/09 13:18:25;;;;;;;2.53;1.27;;;;;;;10.50;36.24;101205.94;5265092;28;20033;-69
2022/04/09 13:20:56;;;;;;;3.78;1.20;;;;;;;10.43;36.26;101207.06;5274110;28;20059;-70
2022/04/09 13:23:30;;;;;;;3.38;1.40;;;;;;;10.55;35.06;101212.28;5263836;28;20025;-69
2022/04/09 13:26:01;;;;;;;1.98;1.38;;;;;;;10.84;36.40;101218.06;5263387;28;20484;-69
2022/04/09 13:28:33;;;;;;;2.90;1.30;;;;;;;10.59;36.33;101210.63;5276182;28;20076;-69
2022/04/09 13:31:04;;;;;;;5.93;1.52;;;;;;;10.51;36.62;101238.13;5267270;28;20111;-71
2022/04/09 13:33:35;;;;;;;2.92;1.38;;;;;;;10.36;37.54;101223.16;5257009;28;20017;-70
2022/04/09 13:36:07;;;;;;;2.97;1.13;;;;;;;10.11;36.87;101218.41;5263666;28;20017;-69
2022/04/09 13:38:38;;;;;;;3.83;1.20;;;;;;;10.09;36.44;101228.13;5273120;28;20496;-69
2022/04/09 13:41:18;;;;;;;1.30;0.95;;;;;;;10.07;36.33;101233.91;5273143;28;20447;-68
2022/04/09 13:43:49;;;;;;;30.13;24.08;;;;;;;9.92;37.42;101234.78;5263031;28;20032;-68
2022/04/09 13:46:20;;;;;;;3.00;1.73;;;;;;;9.66;37.91;101225.56;5263824;28;20449;-70
2022/04/09 13:48:52;;;;;;;3.15;1.80;;;;;;;9.61;38.61;101221.97;5261885;28;20027;-69
2022/04/09 13:51:23;;;;;;;3.13;1.95;;;;;;;9.93;39.05;101228.09;5260078;28;20029;-67
2022/04/09 13:53:55;;;;;;;2.78;1.30;;;;;;;10.37;37.79;101224.78;5263394;28;20334;-68
2022/04/09 13:56:27;;;;;;;2.45;1.20;;;;;;;10.72;37.66;101219.47;5269209;28;20048;-70
2022/04/09 13:58:58;;;;;;;2.30;1.20;;;;;;;10.67;36.58;101220.31;5272259;28;20037;-70
2022/04/09 14:01:30;;;;;;;3.78;1.83;;;;;;;10.18;37.55;101232.84;5263560;28;20298;-70
2022/04/09 14:04:01;;;;;;;2.97;1.30;;;;;;;10.23;39.34;101234.78;5263784;28;20115;-68
2022/04/09 14:06:33;;;;;;;3.60;1.17;;;;;;;10.38;39.16;101231.16;5242728;28;20098;-69
2022/04/09 14:09:04;;;;;;;2.42;1.42;;;;;;;10.33;38.91;101229.25;5263127;28;20025;-69
2022/04/09 14:11:36;;;;;;;3.38;1.40;;;;;;;10.45;38.18;101227.00;5263069;28;20028;-69
2022/04/09 14:14:07;;;;;;;3.65;1.55;;;;;;;10.77;38.09;101236.94;5247994;28;20017;-69
2022/04/09 14:16:38;;;;;;;3.65;1.67;;;;;;;10.80;37.28;101232.78;5265200;28;20392;-67
2022/04/09 14:19:13;;;;;;;4.65;1.92;;;;;;;10.67;38.15;101234.19;5262617;28;20108;-69
2022/04/09 14:21:44;;;;;;;3.78;1.30;;;;;;;10.95;38.52;101229.13;5246765;28;20064;-71
2022/04/09 14:24:16;;;;;;;2.50;1.40;;;;;;;10.71;38.14;101226.97;5256047;28;20416;-69
2022/04/09 14:26:47;;;;;;;4.35;1.30;;;;;;;10.54;38.15;101227.28;5262232;28;20035;-70
2022/04/09 14:29:24;;;;;;;3.03;1.15;;;;;;;10.77;38.68;101228.63;5262829;28;20083;-68
2022/04/09 14:31:56;;;;;;;5.80;2.75;;;;;;;10.68;39.34;101235.00;5262296;28;20053;-68
2022/04/09 14:34:28;;;;;;;6.78;4.80;;;;;;;10.74;39.30;101243.06;5262008;28;20059;-68
2022/04/09 14:37:02;;;;;;;5.45;2.00;;;;;;;10.60;38.76;101251.09;5269350;28;20496;-68
2022/04/09 14:39:33;;;;;;;5.97;1.60;;;;;;;10.29;39.09;101233.69;5263066;28;20021;-68
2022/04/09 14:42:05;;;;;;;6.60;2.38;;;;;;;10.35;39.33;101243.66;5253702;28;20087;-70
2022/04/09 14:44:37;;;;;;;2.50;1.50;;;;;;;10.13;39.26;101251.41;5263310;28;20040;-69
2022/04/09 14:47:10;;;;;;;4.30;1.88;;;;;;;10.20;39.97;101255.56;5268614;28;20048;-69
2022/04/09 14:49:41;;;;;;;3.47;1.63;;;;;;;10.18;41.05;101256.94;5269821;28;20025;-68
2022/04/09 14:52:13;;;;;;;6.18;1.80;;;;;;;10.08;41.24;101256.94;5265839;28;20029;-68
2022/04/09 14:54:44;;;;;;;2.50;1.58;;;;;;;10.09;39.77;101255.81;5261414;28;20392;-69
2022/04/09 14:57:16;;;;;;;2.47;1.70;;;;;;;10.06;40.21;101261.94;5256697;28;20128;-71
2022/04/09 14:59:47;;;;;;;10.00;5.10;;;;;;;9.98;39.64;101252.22;5259810;28;20051;-71
2022/04/09 15:02:18;;;;;;;3.78;2.22;;;;;;;9.66;40.86;101258.81;5261795;28;20013;-71
2022/04/09 15:04:49;;;;;;;4.28;1.92;;;;;;;9.78;40.77;101264.09;5262424;28;20029;-70
2022/04/09 15:07:24;;;;;;;2.67;1.48;;;;;;;9.67;40.62;101259.66;5262365;28;20040;-72
2022/04/09 15:09:56;;;;;;;5.55;1.70;;;;;;;9.47;40.46;101266.78;5261344;28;20074;-73
2022/04/09 15:12:27;;;;;;;3.58;1.63;;;;;;;9.64;41.67;101260.19;5255101;28;20057;-74
2022/04/09 15:14:59;;;;;;;2.67;1.33;;;;;;;9.47;40.71;101271.50;5246845;28;20059;-72
2022/04/09 15:17:30;;;;;;;3.03;1.52;;;;;;;9.38;41.48;101254.56;5261544;28;20503;-72
2022/04/09 15:20:02;;;;;;;5.47;3.28;;;;;;;9.25;41.49;101258.69;5261960;28;20044;-73
2022/04/09 15:22:33;;;;;;;5.38;2.13;;;;;;;9.28;41.75;101251.78;5253708;28;20472;-71
2022/04/09 15:25:05;;;;;;;2.45;1.38;;;;;;;9.30;42.07;101260.63;5253650;28;20112;-71
2022/04/09 15:27:36;;;;;;;2.80;1.63;;;;;;;9.28;41.32;101265.59;5262382;28;20045;-73
2022/04/09 15:30:10;;;;;;;3.08;1.35;;;;;;;9.43;41.39;101265.66;5272383;28;20064;-72
2022/04/09 15:32:41;;;;;;;5.47;1.45;;;;;;;9.25;42.50;101268.94;5254600;28;20053;-75
2022/04/09 15:35:12;;;;;;;2.70;1.42;;;;;;;9.42;43.25;101268.72;5267480;28;20448;-72
2022/04/09 15:37:43;;;;;;;2.72;1.40;;;;;;;9.40;43.22;101270.94;5264135;28;20075;-69
2022/04/09 15:40:15;;;;;;;2.08;1.50;;;;;;;9.36;42.49;101265.94;5261046;28;20021;-69
2022/04/09 15:42:46;;;;;;;3.45;1.50;;;;;;;9.51;42.36;101270.69;5252382;28;20028;-71
2022/04/09 15:45:17;;;;;;;3.83;1.65;;;;;;;9.58;42.38;101275.97;5264574;28;20033;-71
2022/04/09 15:47:48;;;;;;;5.40;2.63;;;;;;;9.85;42.38;101273.00;5260484;28;20502;-70
2022/04/09 15:50:22;;;;;;;2.75;1.50;;;;;;;9.99;41.52;101285.19;5258900;28;20039;-71
2022/04/09 15:52:53;;;;;;;3.78;1.98;;;;;;;9.84;42.59;101281.56;5262487;28;20025;-73
2022/04/09 15:55:25;;;;;;;2.75;1.45;;;;;;;9.74;41.53;101288.75;5274599;28;20043;-72
2022/04/09 15:57:56;;;;;;;2.40;1.20;;;;;;;9.72;41.69;101290.97;5261544;28;20057;-72
2022/04/09 16:00:28;;;;;;;2.63;1.38;;;;;;;9.43;42.34;101289.75;5262260;28;20103;-71
2022/04/09 16:03:00;;;;;;;3.60;1.45;;;;;;;9.46;42.53;101286.44;5261841;28;20055;-78
2022/04/09 16:05:32;;;;;;;3.85;1.42;;;;;;;9.06;43.59;101294.31;5253569;28;20029;-74
2022/04/09 16:08:03;;;;;;;3.50;1.95;;;;;;;9.17;44.56;101295.19;5261751;28;20028;-75
2022/04/09 16:10:35;;;;;;;4.38;1.73;;;;;;;9.06;44.52;101290.72;5254201;28;20037;-74
2022/04/09 16:13:07;;;;;;;1.98;1.48;;;;;;;9.09;42.62;101296.53;5264498;28;20071;-74
2022/04/09 16:15:40;;;;;;;2.50;1.55;;;;;;;8.99;41.89;101299.25;5273300;28;20025;-75
2022/04/09 16:18:12;;;;;;;5.13;1.52;;;;;;;9.07;39.58;101312.56;5268044;28;20029;-75
2022/04/09 16:20:45;;;;;;;2.38;2.13;;;;;;;8.89;40.31;101310.25;5266362;28;20032;-74
2022/04/09 16:23:16;;;;;;;3.78;1.73;;;;;;;8.88;39.63;101306.66;5264961;28;20033;-76
2022/04/09 16:25:52;;;;;;;3.25;1.45;;;;;;;8.85;40.58;101314.66;5274202;28;20025;-76
2022/04/09 16:28:23;;;;;;;3.10;1.80;;;;;;;8.67;42.86;101325.03;5271762;28;20037;-72
2022/04/09 16:30:55;;;;;;;16.77;14.93;;;;;;;8.60;43.55;101329.97;5271884;28;20021;-75
2022/04/09 16:33:32;;;;;;;4.38;2.00;;;;;;;8.53;44.45;101334.03;5266370;28;20079;-74
2022/04/09 16:36:04;;;;;;;4.75;2.10;;;;;;;8.51;44.91;101366.66;5276898;28;20020;-74
2022/04/09 16:38:36;;;;;;;5.88;3.15;;;;;;;7.50;59.50;101392.88;5268364;28;20033;-75
2022/04/09 16:41:07;;;;;;;6.03;2.65;;;;;;;7.46;62.21;101392.53;5256728;28;20022;-75
2022/04/09 16:43:38;;;;;;;6.45;3.47;;;;;;;7.08;65.17;101412.66;5275161;28;20040;-75
2022/04/09 16:46:10;;;;;;;4.10;2.60;;;;;;;6.83;66.42;101413.97;5271160;28;20036;-75
2022/04/09 16:48:41;;;;;;;8.50;2.72;;;;;;;6.64;67.06;101423.53;5266461;28;20480;-75
2022/04/09 16:51:15;;;;;;;3.97;2.80;;;;;;;6.38;68.66;101438.78;5267309;28;20021;-75
2022/04/09 16:53:46;;;;;;;3.97;2.78;;;;;;;6.26;69.60;101447.09;5264425;28;20032;-74
2022/04/09 16:56:18;;;;;;;3.10;2.40;;;;;;;6.00;70.19;101441.09;5259434;28;20017;-75
2022/04/09 16:58:52;;;;;;;4.43;2.78;;;;;;;5.91;70.76;101445.31;5266768;28;20131;-75
2022/04/09 17:01:23;;;;;;;2.88;2.58;;;;;;;5.98;69.83;101448.78;5282841;28;20028;-75
2022/04/09 17:03:55;;;;;;;4.88;2.22;;;;;;;6.15;69.78;101445.25;5266592;28;20024;-75
2022/04/09 17:06:28;;;;;;;4.57;2.80;;;;;;;6.01;68.35;101436.44;5277390;28;20032;-75
2022/04/09 17:08:59;;;;;;;3.95;2.67;;;;;;;6.01;68.82;101437.28;5264111;28;20056;-75
2022/04/09 17:11:31;;;;;;;3.97;2.70;;;;;;;6.00;68.54;101429.25;5269590;28;20061;-74
2022/04/09 17:14:02;;;;;;;5.38;2.85;;;;;;;5.96;68.51;101417.91;5263461;28;20083;-75
2022/04/09 17:16:34;;;;;;;3.80;2.67;;;;;;;6.14;66.46;101418.81;5263599;28;20029;-75
2022/04/09 17:19:05;;;;;;;3.20;2.47;;;;;;;6.21;65.56;101414.81;5265728;28;20029;-75
2022/04/09 17:21:37;;;;;;;3.25;2.30;;;;;;;6.40;64.66;101423.69;5264298;28;20043;-75
2022/04/09 17:24:11;;;;;;;2.90;2.30;;;;;;;6.25;63.49;101423.41;5269931;28;20059;-75
2022/04/09 17:26:42;;;;;;;3.70;2.17;;;;;;;6.49;62.85;101421.34;5264375;28;20033;-74
2022/04/09 17:29:14;;;;;;;4.50;2.60;;;;;;;6.23;62.90;101428.31;5269103;28;20082;-75
